sensor_id;sensor_type;location;lat;lon;timestamp;pressure;altitude;pressure_sealevel;temperature;humidity
10992;BME280;5549;47.028;15.514;2024-02-28T00:01:09;96407.03;;;10.46;80.26
10992;BME280;5549;47.028;15.514;2024-02-28T00:03:39;96410.38;;;10.57;80.07
10992;BME280;5549;47.028;15.514;2024-02-28T00:06:09;96424.78;;;10.63;78.84
10992;BME280;5549;47.028;15.514;2024-02-28T00:08:40;96413.00;;;10.57;79.53
10992;BME280;5549;47.028;15.514;2024-02-28T00:11:08;96413.28;;;10.54;78.90
10992;BME280;5549;47.028;15.514;2024-02-28T00:13:38;96428.63;;;10.59;79.03
10992;BME280;5549;47.028;15.514;2024-02-28T00:16:07;96421.59;;;10.59;78.42
10992;BME280;5549;47.028;15.514;2024-02-28T00:18:35;96416.19;;;10.61;78.91
10992;BME280;5549;47.028;15.514;2024-02-28T00:21:04;96423.13;;;10.62;78.15
10992;BME280;5549;47.028;15.514;2024-02-28T00:23:32;96425.34;;;10.67;78.09
10992;BME280;5549;47.028;15.514;2024-02-28T00:26:03;96412.34;;;10.65;77.82
10992;BME280;5549;47.028;15.514;2024-02-28T00:28:31;96416.19;;;10.61;77.72
10992;BME280;5549;47.028;15.514;2024-02-28T00:30:59;96408.19;;;10.63;77.57
10992;BME280;5549;47.028;15.514;2024-02-28T00:33:26;96410.41;;;10.67;77.49
10992;BME280;5549;47.028;15.514;2024-02-28T00:35:54;96409.88;;;10.73;76.71
10992;BME280;5549;47.028;15.514;2024-02-28T00:38:21;96402.56;;;10.77;76.82
10992;BME280;5549;47.028;15.514;2024-02-28T00:40:52;96412.09;;;10.78;76.08
10992;BME280;5549;47.028;15.514;2024-02-28T00:43:20;96415.16;;;10.83;75.60
10992;BME280;5549;47.028;15.514;2024-02-28T00:45:48;96415.03;;;10.84;74.96
10992;BME280;5549;47.028;15.514;2024-02-28T00:48:16;96422.78;;;10.86;75.56
10992;BME280;5549;47.028;15.514;2024-02-28T00:50:46;96424.84;;;10.82;75.40
10992;BME280;5549;47.028;15.514;2024-02-28T00:53:14;96430.66;;;10.86;75.27
10992;BME280;5549;47.028;15.514;2024-02-28T00:55:41;96427.34;;;10.84;74.63
10992;BME280;5549;47.028;15.514;2024-02-28T00:58:12;96432.59;;;10.84;74.84
10992;BME280;5549;47.028;15.514;2024-02-28T01:00:44;96429.00;;;10.85;74.20
10992;BME280;5549;47.028;15.514;2024-02-28T01:03:14;96437.84;;;10.84;73.99
10992;BME280;5549;47.028;15.514;2024-02-28T01:05:49;96438.94;;;10.81;73.58
10992;BME280;5549;47.028;15.514;2024-02-28T01:08:36;96447.91;;;10.79;73.42
10992;BME280;5549;47.028;15.514;2024-02-28T01:11:11;96440.88;;;10.79;73.39
10992;BME280;5549;47.028;15.514;2024-02-28T01:13:42;96441.00;;;10.78;73.39
10992;BME280;5549;47.028;15.514;2024-02-28T01:16:22;96443.19;;;10.73;74.35
10992;BME280;5549;47.028;15.514;2024-02-28T01:18:55;96445.47;;;10.56;75.13
10992;BME280;5549;47.028;15.514;2024-02-28T01:21:29;96453.34;;;10.56;74.47
10992;BME280;5549;47.028;15.514;2024-02-28T01:24:06;96452.66;;;10.54;74.41
10992;BME280;5549;47.028;15.514;2024-02-28T01:26:38;96446.28;;;10.47;75.27
10992;BME280;5549;47.028;15.514;2024-02-28T01:29:11;96449.72;;;10.27;77.21
10992;BME280;5549;47.028;15.514;2024-02-28T01:31:45;96453.50;;;10.34;76.82
10992;BME280;5549;47.028;15.514;2024-02-28T01:34:16;96445.50;;;10.36;75.88
10992;BME280;5549;47.028;15.514;2024-02-28T01:36:50;96442.03;;;10.14;78.27
10992;BME280;5549;47.028;15.514;2024-02-28T01:39:23;96444.16;;;10.20;78.27
10992;BME280;5549;47.028;15.514;2024-02-28T01:41:54;96453.56;;;10.23;77.39
10992;BME280;5549;47.028;15.514;2024-02-28T01:44:27;96442.38;;;10.21;77.90
10992;BME280;5549;47.028;15.514;2024-02-28T01:46:58;96439.47;;;10.24;77.60
10992;BME280;5549;47.028;15.514;2024-02-28T01:49:26;96438.09;;;10.20;77.74
10992;BME280;5549;47.028;15.514;2024-02-28T01:52:04;96438.09;;;10.20;77.70
10992;BME280;5549;47.028;15.514;2024-02-28T01:54:39;96438.91;;;10.20;77.21
10992;BME280;5549;47.028;15.514;2024-02-28T01:57:10;96438.91;;;10.20;77.94
10992;BME280;5549;47.028;15.514;2024-02-28T01:59:50;96439.63;;;10.22;77.68
10992;BME280;5549;47.028;15.514;2024-02-28T02:02:25;96440.88;;;10.28;77.18
10992;BME280;5549;47.028;15.514;2024-02-28T02:04:52;96438.56;;;10.35;76.90
10992;BME280;5549;47.028;15.514;2024-02-28T02:07:21;96436.53;;;10.38;76.61
10992;BME280;5549;47.028;15.514;2024-02-28T02:09:57;96440.72;;;10.41;76.54
10992;BME280;5549;47.028;15.514;2024-02-28T02:12:27;96442.25;;;10.43;76.78
10992;BME280;5549;47.028;15.514;2024-02-28T02:14:55;96446.28;;;10.47;76.42
10992;BME280;5549;47.028;15.514;2024-02-28T02:17:29;96446.13;;;10.49;75.49
10992;BME280;5549;47.028;15.514;2024-02-28T02:19:59;96442.94;;;10.45;76.06
10992;BME280;5549;47.028;15.514;2024-02-28T02:22:34;96447.63;;;10.42;75.97
10992;BME280;5549;47.028;15.514;2024-02-28T02:25:05;96445.63;;;10.34;76.86
10992;BME280;5549;47.028;15.514;2024-02-28T02:27:35;96450.56;;;10.27;77.64
10992;BME280;5549;47.028;15.514;2024-02-28T02:30:06;96449.47;;;10.30;76.91
10992;BME280;5549;47.028;15.514;2024-02-28T02:32:37;96447.81;;;10.29;77.53
10992;BME280;5549;47.028;15.514;2024-02-28T02:35:05;96447.34;;;10.24;77.18
10992;BME280;5549;47.028;15.514;2024-02-28T02:37:37;96439.94;;;10.29;77.47
10992;BME280;5549;47.028;15.514;2024-02-28T02:40:08;96442.41;;;10.31;77.06
10992;BME280;5549;47.028;15.514;2024-02-28T02:42:41;96440.31;;;10.24;78.13
10992;BME280;5549;47.028;15.514;2024-02-28T02:45:10;96438.56;;;10.14;78.65
10992;BME280;5549;47.028;15.514;2024-02-28T02:47:38;96439.53;;;10.13;78.90
10992;BME280;5549;47.028;15.514;2024-02-28T02:50:06;96441.69;;;10.08;78.78
10992;BME280;5549;47.028;15.514;2024-02-28T02:52:34;96444.19;;;10.09;78.58
10992;BME280;5549;47.028;15.514;2024-02-28T02:55:04;96444.06;;;10.11;77.86
10992;BME280;5549;47.028;15.514;2024-02-28T02:57:32;96433.56;;;10.11;78.05
10992;BME280;5549;47.028;15.514;2024-02-28T03:00:00;96439.28;;;10.16;77.71
10992;BME280;5549;47.028;15.514;2024-02-28T03:02:28;96435.56;;;10.18;77.33
10992;BME280;5549;47.028;15.514;2024-02-28T03:04:56;96441.41;;;10.22;76.77
10992;BME280;5549;47.028;15.514;2024-02-28T03:07:25;96445.00;;;10.21;77.10
10992;BME280;5549;47.028;15.514;2024-02-28T03:09:52;96450.25;;;10.21;77.34
10992;BME280;5549;47.028;15.514;2024-02-28T03:12:24;96443.91;;;10.23;76.58
10992;BME280;5549;47.028;15.514;2024-02-28T03:14:51;96449.03;;;10.25;76.35
10992;BME280;5549;47.028;15.514;2024-02-28T03:17:20;96444.34;;;10.28;76.35
10992;BME280;5549;47.028;15.514;2024-02-28T03:19:52;96448.50;;;10.31;75.96
10992;BME280;5549;47.028;15.514;2024-02-28T03:22:28;96454.44;;;10.33;75.92
10992;BME280;5549;47.028;15.514;2024-02-28T03:24:56;96459.69;;;10.33;75.19
10992;BME280;5549;47.028;15.514;2024-02-28T03:27:27;96458.75;;;10.34;75.84
10992;BME280;5549;47.028;15.514;2024-02-28T03:29:55;96458.03;;;10.32;75.27
10992;BME280;5549;47.028;15.514;2024-02-28T03:32:25;96453.63;;;10.33;75.30
10992;BME280;5549;47.028;15.514;2024-02-28T03:34:53;96463.88;;;10.36;75.72
10992;BME280;5549;47.028;15.514;2024-02-28T03:37:23;96463.59;;;10.39;75.48
10992;BME280;5549;47.028;15.514;2024-02-28T03:39:53;96453.56;;;10.23;75.63
10992;BME280;5549;47.028;15.514;2024-02-28T03:42:23;96454.53;;;10.22;76.38
10992;BME280;5549;47.028;15.514;2024-02-28T03:44:54;96457.03;;;10.23;75.91
10992;BME280;5549;47.028;15.514;2024-02-28T03:47:25;96453.56;;;10.23;75.79
10992;BME280;5549;47.028;15.514;2024-02-28T03:49:53;96450.94;;;10.23;75.56
10992;BME280;5549;47.028;15.514;2024-02-28T03:52:23;96451.66;;;10.25;75.66
10992;BME280;5549;47.028;15.514;2024-02-28T03:54:53;96449.97;;;10.24;75.33
10992;BME280;5549;47.028;15.514;2024-02-28T03:57:21;96445.22;;;10.18;75.82
10992;BME280;5549;47.028;15.514;2024-02-28T03:59:49;96449.91;;;10.14;75.78
10992;BME280;5549;47.028;15.514;2024-02-28T04:02:20;96437.34;;;10.18;75.75
10992;BME280;5549;47.028;15.514;2024-02-28T04:04:55;96444.38;;;10.17;75.60
10992;BME280;5549;47.028;15.514;2024-02-28T04:07:22;96437.16;;;10.10;76.29
10992;BME280;5549;47.028;15.514;2024-02-28T04:09:50;96436.78;;;10.14;76.48
10992;BME280;5549;47.028;15.514;2024-02-28T04:12:20;96437.59;;;10.15;76.15
10992;BME280;5549;47.028;15.514;2024-02-28T04:14:47;96436.66;;;10.16;75.86
10992;BME280;5549;47.028;15.514;2024-02-28T04:17:15;96439.53;;;10.13;75.46
10992;BME280;5549;47.028;15.514;2024-02-28T04:19:46;96441.78;;;9.96;77.11
10992;BME280;5549;47.028;15.514;2024-02-28T04:22:14;96445.94;;;9.99;76.58
10992;BME280;5549;47.028;15.514;2024-02-28T04:24:42;96447.47;;;10.02;75.76
10992;BME280;5549;47.028;15.514;2024-02-28T04:27:09;96448.16;;;10.04;75.57
10992;BME280;5549;47.028;15.514;2024-02-28T04:29:38;96449.50;;;9.98;77.56
10992;BME280;5549;47.028;15.514;2024-02-28T04:32:08;96446.88;;;9.98;77.69
10992;BME280;5549;47.028;15.514;2024-02-28T04:34:37;96453.09;;;9.97;77.68
10992;BME280;5549;47.028;15.514;2024-02-28T04:37:08;96460.97;;;9.97;77.55
10992;BME280;5549;47.028;15.514;2024-02-28T04:39:36;96463.34;;;10.00;77.10
10992;BME280;5549;47.028;15.514;2024-02-28T04:42:04;96466.09;;;9.98;77.22
10992;BME280;5549;47.028;15.514;2024-02-28T04:44:32;96468.72;;;9.98;76.38
10992;BME280;5549;47.028;15.514;2024-02-28T04:46:59;96471.47;;;9.97;76.19
10992;BME280;5549;47.028;15.514;2024-02-28T04:49:29;96471.84;;;9.92;76.29
10992;BME280;5549;47.028;15.514;2024-02-28T04:51:59;96475.44;;;9.91;76.32
10992;BME280;5549;47.028;15.514;2024-02-28T04:54:28;96481.06;;;9.87;75.36
10992;BME280;5549;47.028;15.514;2024-02-28T04:56:56;96484.81;;;9.73;76.12
10992;BME280;5549;47.028;15.514;2024-02-28T04:59:24;96483.34;;;9.48;76.38
10992;BME280;5549;47.028;15.514;2024-02-28T05:01:52;96477.69;;;9.32;77.66
10992;BME280;5549;47.028;15.514;2024-02-28T05:04:19;96479.13;;;9.25;77.47
10992;BME280;5549;47.028;15.514;2024-02-28T05:06:48;96468.66;;;9.25;77.29
10992;BME280;5549;47.028;15.514;2024-02-28T05:09:16;96469.59;;;9.24;77.45
10992;BME280;5549;47.028;15.514;2024-02-28T05:11:47;96471.38;;;9.23;77.35
10992;BME280;5549;47.028;15.514;2024-02-28T05:14:15;96473.53;;;9.18;77.04
10992;BME280;5549;47.028;15.514;2024-02-28T05:16:42;96473.53;;;9.18;76.96
10992;BME280;5549;47.028;15.514;2024-02-28T05:19:13;96468.53;;;9.15;77.92
10992;BME280;5549;47.028;15.514;2024-02-28T05:21:44;96464.97;;;9.16;77.91
10992;BME280;5549;47.028;15.514;2024-02-28T05:24:14;96469.25;;;9.17;77.36
10992;BME280;5549;47.028;15.514;2024-02-28T05:26:42;96471.06;;;9.06;77.26
10992;BME280;5549;47.028;15.514;2024-02-28T05:29:13;96467.63;;;9.05;76.96
10992;BME280;5549;47.028;15.514;2024-02-28T05:31:43;96470.81;;;9.09;76.76
10992;BME280;5549;47.028;15.514;2024-02-28T05:34:11;96470.56;;;9.12;76.10
10992;BME280;5549;47.028;15.514;2024-02-28T05:36:41;96471.16;;;9.15;75.94
10992;BME280;5549;47.028;15.514;2024-02-28T05:39:09;96472.72;;;9.18;75.90
10992;BME280;5549;47.028;15.514;2024-02-28T05:41:36;96474.25;;;9.20;75.71
10992;BME280;5549;47.028;15.514;2024-02-28T05:44:04;96483.53;;;9.24;75.72
10992;BME280;5549;47.028;15.514;2024-02-28T05:46:35;96489.47;;;9.26;75.59
10992;BME280;5549;47.028;15.514;2024-02-28T05:49:03;96498.63;;;9.32;75.12
10992;BME280;5549;47.028;15.514;2024-02-28T05:51:33;96501.25;;;9.32;75.18
10992;BME280;5549;47.028;15.514;2024-02-28T05:54:02;96508.16;;;9.33;75.33
10992;BME280;5549;47.028;15.514;2024-02-28T05:56:29;96521.16;;;9.35;75.17
10992;BME280;5549;47.028;15.514;2024-02-28T05:58:57;96530.44;;;9.39;75.03
10992;BME280;5549;47.028;15.514;2024-02-28T06:01:27;96540.09;;;9.38;74.76
10992;BME280;5549;47.028;15.514;2024-02-28T06:03:55;96539.38;;;9.25;76.94
10992;BME280;5549;47.028;15.514;2024-02-28T06:06:37;96547.25;;;9.14;77.65
10992;BME280;5549;47.028;15.514;2024-02-28T06:09:04;96536.31;;;9.09;78.00
10992;BME280;5549;47.028;15.514;2024-02-28T06:11:34;96556.06;;;8.90;80.11
10992;BME280;5549;47.028;15.514;2024-02-28T06:14:04;96559.75;;;8.77;81.11
10992;BME280;5549;47.028;15.514;2024-02-28T06:16:32;96554.53;;;8.77;81.27
10992;BME280;5549;47.028;15.514;2024-02-28T06:19:03;96559.41;;;8.70;82.01
10992;BME280;5549;47.028;15.514;2024-02-28T06:21:31;96556.91;;;8.68;82.30
10992;BME280;5549;47.028;15.514;2024-02-28T06:23:58;96550.81;;;8.68;82.68
10992;BME280;5549;47.028;15.514;2024-02-28T06:26:26;96546.44;;;8.68;82.78
10992;BME280;5549;47.028;15.514;2024-02-28T06:28:54;96556.44;;;8.75;83.03
10992;BME280;5549;47.028;15.514;2024-02-28T06:31:27;96557.38;;;8.85;82.41
10992;BME280;5549;47.028;15.514;2024-02-28T06:33:55;96568.81;;;8.95;82.35
10992;BME280;5549;47.028;15.514;2024-02-28T06:36:26;96561.69;;;8.86;81.56
10992;BME280;5549;47.028;15.514;2024-02-28T06:38:54;96566.19;;;8.84;81.58
10992;BME280;5549;47.028;15.514;2024-02-28T06:41:23;96573.81;;;8.98;81.39
10992;BME280;5549;47.028;15.514;2024-02-28T06:43:53;96578.09;;;9.10;81.16
10992;BME280;5549;47.028;15.514;2024-02-28T06:46:21;96571.91;;;9.22;80.94
10992;BME280;5549;47.028;15.514;2024-02-28T06:48:50;96572.59;;;9.36;80.18
10992;BME280;5549;47.028;15.514;2024-02-28T06:51:20;96572.47;;;9.48;79.88
10992;BME280;5549;47.028;15.514;2024-02-28T06:53:49;96579.47;;;9.59;79.72
10992;BME280;5549;47.028;15.514;2024-02-28T06:56:19;96574.66;;;9.75;79.94
10992;BME280;5549;47.028;15.514;2024-02-28T06:58:47;96584.41;;;9.84;79.81
10992;BME280;5549;47.028;15.514;2024-02-28T07:01:21;96594.91;;;9.84;79.40
10992;BME280;5549;47.028;15.514;2024-02-28T07:03:49;96593.13;;;10.28;82.40
10992;BME280;5549;47.028;15.514;2024-02-28T07:06:18;96588.06;;;10.99;84.96
10992;BME280;5549;47.028;15.514;2024-02-28T07:08:46;96585.66;;;11.56;83.19
10992;BME280;5549;47.028;15.514;2024-02-28T07:11:17;96590.94;;;12.16;79.31
10992;BME280;5549;47.028;15.514;2024-02-28T07:13:47;96590.50;;;12.69;75.93
10992;BME280;5549;47.028;15.514;2024-02-28T07:16:17;96590.53;;;13.15;73.13
10992;BME280;5549;47.028;15.514;2024-02-28T07:18:44;96589.72;;;13.52;70.35
10992;BME280;5549;47.028;15.514;2024-02-28T07:21:12;96587.19;;;13.88;69.02
10992;BME280;5549;47.028;15.514;2024-02-28T07:23:40;96589.16;;;14.21;67.20
10992;BME280;5549;47.028;15.514;2024-02-28T07:26:16;96587.47;;;14.48;65.94
10992;BME280;5549;47.028;15.514;2024-02-28T07:28:43;96587.03;;;14.78;64.50
10992;BME280;5549;47.028;15.514;2024-02-28T07:31:18;96583.41;;;15.05;63.41
10992;BME280;5549;47.028;15.514;2024-02-28T07:33:46;96587.84;;;15.30;62.72
10992;BME280;5549;47.028;15.514;2024-02-28T07:36:16;96586.16;;;15.55;61.50
10992;BME280;5549;47.028;15.514;2024-02-28T07:38:46;96587.31;;;15.79;60.31
10992;BME280;5549;47.028;15.514;2024-02-28T07:41:16;96588.53;;;16.00;59.31
10992;BME280;5549;47.028;15.514;2024-02-28T07:43:44;96586.41;;;16.20;58.48
10992;BME280;5549;47.028;15.514;2024-02-28T07:46:14;96586.44;;;16.36;57.45
10992;BME280;5549;47.028;15.514;2024-02-28T07:48:44;96583.78;;;16.53;56.76
10992;BME280;5549;47.028;15.514;2024-02-28T07:51:14;96591.41;;;16.56;56.18
10992;BME280;5549;47.028;15.514;2024-02-28T07:53:43;96596.38;;;16.51;55.95
10992;BME280;5549;47.028;15.514;2024-02-28T07:56:17;96603.50;;;16.50;55.71
10992;BME280;5549;47.028;15.514;2024-02-28T07:58:47;96601.03;;;16.49;54.98
10992;BME280;5549;47.028;15.514;2024-02-28T08:01:17;96599.69;;;16.45;55.41
10992;BME280;5549;47.028;15.514;2024-02-28T08:03:47;96597.22;;;16.43;55.42
10992;BME280;5549;47.028;15.514;2024-02-28T08:06:16;96598.03;;;16.52;55.32
10992;BME280;5549;47.028;15.514;2024-02-28T08:08:46;96597.88;;;16.61;54.59
10992;BME280;5549;47.028;15.514;2024-02-28T08:11:14;96593.09;;;16.73;54.45
10992;BME280;5549;47.028;15.514;2024-02-28T08:13:43;96597.56;;;16.89;54.08
10992;BME280;5549;47.028;15.514;2024-02-28T08:16:13;96597.72;;;17.04;54.22
10992;BME280;5549;47.028;15.514;2024-02-28T08:18:42;96598.53;;;17.20;53.60
10992;BME280;5549;47.028;15.514;2024-02-28T08:21:10;96600.50;;;17.43;53.32
10992;BME280;5549;47.028;15.514;2024-02-28T08:23:38;96593.94;;;17.61;53.18
10992;BME280;5549;47.028;15.514;2024-02-28T08:26:07;96603.88;;;17.76;52.88
10992;BME280;5549;47.028;15.514;2024-02-28T08:28:37;96606.19;;;17.79;53.05
10992;BME280;5549;47.028;15.514;2024-02-28T08:31:06;96598.19;;;17.87;52.95
10992;BME280;5549;47.028;15.514;2024-02-28T08:33:34;96606.09;;;18.03;52.88
10992;BME280;5549;47.028;15.514;2024-02-28T08:36:01;96600.50;;;18.21;52.52
10992;BME280;5549;47.028;15.514;2024-02-28T08:38:31;96603.22;;;18.36;52.09
10992;BME280;5549;47.028;15.514;2024-02-28T08:40:59;96603.00;;;18.22;51.82
10992;BME280;5549;47.028;15.514;2024-02-28T08:43:26;96606.75;;;18.05;52.37
10992;BME280;5549;47.028;15.514;2024-02-28T08:45:56;96616.59;;;17.97;52.70
10992;BME280;5549;47.028;15.514;2024-02-28T08:48:27;96613.44;;;17.93;53.08
10992;BME280;5549;47.028;15.514;2024-02-28T08:50:57;96621.09;;;17.88;53.40
10992;BME280;5549;47.028;15.514;2024-02-28T08:53:24;96621.09;;;17.88;53.61
10992;BME280;5549;47.028;15.514;2024-02-28T08:55:55;96630.06;;;17.87;52.98
10992;BME280;5549;47.028;15.514;2024-02-28T08:58:25;96629.59;;;17.83;52.81
10992;BME280;5549;47.028;15.514;2024-02-28T09:00:54;96627.47;;;17.71;53.06
10992;BME280;5549;47.028;15.514;2024-02-28T09:03:21;96633.63;;;17.71;53.63
10992;BME280;5549;47.028;15.514;2024-02-28T09:05:52;96634.44;;;17.72;54.37
10992;BME280;5549;47.028;15.514;2024-02-28T09:08:20;96638.72;;;17.81;54.76
10992;BME280;5549;47.028;15.514;2024-02-28T09:10:48;96644.19;;;17.87;54.42
10992;BME280;5549;47.028;15.514;2024-02-28T09:13:15;96640.84;;;17.93;54.01
10992;BME280;5549;47.028;15.514;2024-02-28T09:15:44;96636.50;;;18.01;53.82
10992;BME280;5549;47.028;15.514;2024-02-28T09:18:11;96635.63;;;18.08;53.50
10992;BME280;5549;47.028;15.514;2024-02-28T09:20:39;96641.69;;;17.86;51.20
10992;BME280;5549;47.028;15.514;2024-02-28T09:23:08;96635.09;;;17.74;52.22
10992;BME280;5549;47.028;15.514;2024-02-28T09:25:38;96633.59;;;17.79;53.00
10992;BME280;5549;47.028;15.514;2024-02-28T09:28:06;96623.59;;;17.89;52.87
10992;BME280;5549;47.028;15.514;2024-02-28T09:30:34;96633.66;;;18.02;53.08
10992;BME280;5549;47.028;15.514;2024-02-28T09:33:04;96629.44;;;18.16;52.76
10992;BME280;5549;47.028;15.514;2024-02-28T09:35:32;96640.25;;;18.14;52.40
10992;BME280;5549;47.028;15.514;2024-02-28T09:37:59;96636.75;;;17.75;53.29
10992;BME280;5549;47.028;15.514;2024-02-28T09:40:29;96631.34;;;17.99;53.02
10992;BME280;5549;47.028;15.514;2024-02-28T09:43:01;96642.91;;;18.14;52.81
10992;BME280;5549;47.028;15.514;2024-02-28T09:45:31;96635.84;;;18.30;52.42
10992;BME280;5549;47.028;15.514;2024-02-28T09:48:02;96643.28;;;18.03;52.68
10992;BME280;5549;47.028;15.514;2024-02-28T09:50:30;96653.75;;;17.49;52.69
10992;BME280;5549;47.028;15.514;2024-02-28T09:53:00;96655.09;;;16.96;53.79
10992;BME280;5549;47.028;15.514;2024-02-28T09:55:29;96656.75;;;17.06;54.77
10992;BME280;5549;47.028;15.514;2024-02-28T09:57:57;96650.47;;;16.98;54.47
10992;BME280;5549;47.028;15.514;2024-02-28T10:00:26;96659.06;;;16.92;55.01
10992;BME280;5549;47.028;15.514;2024-02-28T10:02:54;96661.91;;;17.07;55.98
10992;BME280;5549;47.028;15.514;2024-02-28T10:05:23;96667.03;;;17.25;55.97
10992;BME280;5549;47.028;15.514;2024-02-28T10:07:56;96663.03;;;17.29;54.43
10992;BME280;5549;47.028;15.514;2024-02-28T10:10:24;96666.03;;;17.18;54.03
10992;BME280;5549;47.028;15.514;2024-02-28T10:12:52;96661.38;;;17.28;54.01
10992;BME280;5549;47.028;15.514;2024-02-28T10:15:22;96652.09;;;17.40;54.97
10992;BME280;5549;47.028;15.514;2024-02-28T10:17:52;96666.69;;;17.28;54.64
10992;BME280;5549;47.028;15.514;2024-02-28T10:20:22;96665.69;;;17.29;55.46
10992;BME280;5549;47.028;15.514;2024-02-28T10:22:52;96663.03;;;17.45;55.20
10992;BME280;5549;47.028;15.514;2024-02-28T10:25:20;96665.19;;;17.50;54.77
10992;BME280;5549;47.028;15.514;2024-02-28T10:27:48;96664.50;;;17.56;55.50
10992;BME280;5549;47.028;15.514;2024-02-28T10:30:20;96660.00;;;17.64;55.56
10992;BME280;5549;47.028;15.514;2024-02-28T10:32:49;96659.69;;;17.59;55.22
10992;BME280;5549;47.028;15.514;2024-02-28T10:35:17;96663.66;;;17.72;55.69
10992;BME280;5549;47.028;15.514;2024-02-28T10:37:46;96671.94;;;17.85;55.75
10992;BME280;5549;47.028;15.514;2024-02-28T10:40:14;96673.13;;;17.58;55.02
10992;BME280;5549;47.028;15.514;2024-02-28T10:42:42;96664.03;;;17.52;54.95
10992;BME280;5549;47.028;15.514;2024-02-28T10:45:10;96667.03;;;17.41;55.21
10992;BME280;5549;47.028;15.514;2024-02-28T10:47:39;96668.53;;;17.44;55.05
10992;BME280;5549;47.028;15.514;2024-02-28T10:50:10;96670.00;;;17.30;54.83
10992;BME280;5549;47.028;15.514;2024-02-28T10:52:44;96664.34;;;17.33;54.26
10992;BME280;5549;47.028;15.514;2024-02-28T10:55:14;96669.69;;;17.25;55.94
10992;BME280;5549;47.028;15.514;2024-02-28T10:57:45;96665.69;;;17.13;57.05
10992;BME280;5549;47.028;15.514;2024-02-28T11:00:17;96669.03;;;16.98;56.55
10992;BME280;5549;47.028;15.514;2024-02-28T11:02:49;96674.16;;;16.84;57.21
10992;BME280;5549;47.028;15.514;2024-02-28T11:05:19;96668.69;;;16.77;58.22
10992;BME280;5549;47.028;15.514;2024-02-28T11:07:51;96673.59;;;16.48;59.61
10992;BME280;5549;47.028;15.514;2024-02-28T11:10:30;96664.78;;;16.39;59.86
10992;BME280;5549;47.028;15.514;2024-02-28T11:12:58;96673.22;;;16.34;60.21
10992;BME280;5549;47.028;15.514;2024-02-28T11:15:28;96671.19;;;16.20;60.38
10992;BME280;5549;47.028;15.514;2024-02-28T11:18:09;96672.34;;;16.18;60.75
10992;BME280;5549;47.028;15.514;2024-02-28T11:20:39;96670.22;;;16.21;60.64
10992;BME280;5549;47.028;15.514;2024-02-28T11:23:07;96666.28;;;16.33;60.43
10992;BME280;5549;47.028;15.514;2024-02-28T11:25:35;96668.28;;;16.48;59.67
10992;BME280;5549;47.028;15.514;2024-02-28T11:28:04;96658.34;;;16.42;58.50
10992;BME280;5549;47.028;15.514;2024-02-28T11:30:33;96667.41;;;16.31;58.46
10992;BME280;5549;47.028;15.514;2024-02-28T11:33:03;96669.78;;;16.42;58.22
10992;BME280;5549;47.028;15.514;2024-02-28T11:35:35;96668.94;;;16.42;58.14
10992;BME280;5549;47.028;15.514;2024-02-28T11:38:06;96669.28;;;16.55;58.55
10992;BME280;5549;47.028;15.514;2024-02-28T11:40:49;96661.69;;;16.60;59.16
10992;BME280;5549;47.028;15.514;2024-02-28T11:43:19;96663.00;;;16.64;59.28
10992;BME280;5549;47.028;15.514;2024-02-28T11:45:47;96663.00;;;16.64;59.09
10992;BME280;5549;47.028;15.514;2024-02-28T11:48:15;96667.63;;;16.54;59.22
10992;BME280;5549;47.028;15.514;2024-02-28T11:50:44;96671.91;;;16.39;59.70
10992;BME280;5549;47.028;15.514;2024-02-28T11:53:14;96665.97;;;16.45;58.89
10992;BME280;5549;47.028;15.514;2024-02-28T11:55:45;96668.75;;;16.35;59.56
10992;BME280;5549;47.028;15.514;2024-02-28T11:58:14;96670.19;;;16.13;61.24
10992;BME280;5549;47.028;15.514;2024-02-28T12:00:49;96671.53;;;15.75;61.69
10992;BME280;5549;47.028;15.514;2024-02-28T12:03:22;96672.44;;;15.92;61.11
10992;BME280;5549;47.028;15.514;2024-02-28T12:05:55;96669.28;;;15.96;62.12
10992;BME280;5549;47.028;15.514;2024-02-28T12:08:25;96658.91;;;16.11;61.30
10992;BME280;5549;47.028;15.514;2024-02-28T12:10:55;96658.97;;;16.27;61.64
10992;BME280;5549;47.028;15.514;2024-02-28T12:13:24;96657.66;;;16.31;60.85
10992;BME280;5549;47.028;15.514;2024-02-28T12:15:52;96655.97;;;16.22;60.36
10992;BME280;5549;47.028;15.514;2024-02-28T12:18:22;96651.34;;;16.24;59.65
10992;BME280;5549;47.028;15.514;2024-02-28T12:20:49;96656.91;;;15.63;61.70
10992;BME280;5549;47.028;15.514;2024-02-28T12:23:18;96652.44;;;15.63;61.03
10992;BME280;5549;47.028;15.514;2024-02-28T12:25:46;96648.47;;;15.67;59.29
10992;BME280;5549;47.028;15.514;2024-02-28T12:28:15;96653.19;;;15.82;58.47
10992;BME280;5549;47.028;15.514;2024-02-28T12:30:45;96646.59;;;15.94;58.52
10992;BME280;5549;47.028;15.514;2024-02-28T12:33:13;96643.34;;;16.08;57.95
10992;BME280;5549;47.028;15.514;2024-02-28T12:35:40;96644.72;;;15.78;56.95
10992;BME280;5549;47.028;15.514;2024-02-28T12:38:10;96641.06;;;16.21;56.95
10992;BME280;5549;47.028;15.514;2024-02-28T12:40:41;96636.16;;;16.51;56.97
10992;BME280;5549;47.028;15.514;2024-02-28T12:43:11;96641.34;;;16.77;56.32
10992;BME280;5549;47.028;15.514;2024-02-28T12:45:40;96631.81;;;16.42;55.94
10992;BME280;5549;47.028;15.514;2024-02-28T12:48:08;96632.22;;;16.79;55.15
10992;BME280;5549;47.028;15.514;2024-02-28T12:50:38;96631.19;;;17.29;54.51
10992;BME280;5549;47.028;15.514;2024-02-28T12:53:06;96627.03;;;17.26;52.27
10992;BME280;5549;47.028;15.514;2024-02-28T12:55:34;96625.03;;;17.28;52.50
10992;BME280;5549;47.028;15.514;2024-02-28T12:58:05;96620.41;;;17.30;49.57
10992;BME280;5549;47.028;15.514;2024-02-28T13:00:33;96624.22;;;17.44;49.74
10992;BME280;5549;47.028;15.514;2024-02-28T13:03:01;96615.38;;;17.68;50.10
10992;BME280;5549;47.028;15.514;2024-02-28T13:05:29;96616.84;;;17.62;49.17
10992;BME280;5549;47.028;15.514;2024-02-28T13:07:57;96609.88;;;17.61;47.77
10992;BME280;5549;47.028;15.514;2024-02-28T13:10:28;96609.38;;;17.74;47.57
10992;BME280;5549;47.028;15.514;2024-02-28T13:12:56;96605.09;;;18.04;46.99
10992;BME280;5549;47.028;15.514;2024-02-28T13:15:26;96608.00;;;18.17;47.16